sensor_id;sensor_type;location;lat;lon;timestamp;pressure;altitude;pressure_sealevel;temperature;humidity
20015;BME280;61787;42.022;23.078;2023-03-01T00:01:05;97151.50;;;9.26;100.00
20015;BME280;61787;42.022;23.078;2023-03-01T00:02:07;97152.94;;;9.32;100.00
20015;BME280;61787;42.022;23.078;2023-03-01T00:03:09;97150.41;;;9.35;100.00
20015;BME280;61787;42.022;23.078;2023-03-01T00:04:10;97146.75;;;9.40;100.00
20015;BME280;61787;42.022;23.078;2023-03-01T00:05:12;97151.50;;;9.43;100.00
20015;BME280;61787;42.022;23.078;2023-03-01T00:06:14;97146.47;;;9.33;100.00
20015;BME280;61787;42.022;23.078;2023-03-01T00:07:15;97146.78;;;9.23;100.00
20015;BME280;61787;42.022;23.078;2023-03-01T00:08:17;97143.97;;;9.28;100.00
20015;BME280;61787;42.022;23.078;2023-03-01T00:09:19;97141.56;;;9.35;100.00
20015;BME280;61787;42.022;23.078;2023-03-01T00:10:20;97136.72;;;9.37;100.00
20015;BME280;61787;42.022;23.078;2023-03-01T00:11:28;97136.56;;;9.33;100.00
20015;BME280;61787;42.022;23.078;2023-03-01T00:12:31;97133.88;;;9.33;100.00
20015;BME280;61787;42.022;23.078;2023-03-01T00:13:33;97132.63;;;9.31;100.00
20015;BME280;61787;42.022;23.078;2023-03-01T00:14:35;97129.16;;;9.22;99.31
20015;BME280;61787;42.022;23.078;2023-03-01T00:15:40;97128.84;;;9.15;98.82
20015;BME280;61787;42.022;23.078;2023-03-01T00:16:44;97132.16;;;9.12;98.85
20015;BME280;61787;42.022;23.078;2023-03-01T00:17:46;97132.16;;;9.12;98.45
20015;BME280;61787;42.022;23.078;2023-03-01T00:18:48;97129.47;;;9.12;97.97
20015;BME280;61787;42.022;23.078;2023-03-01T00:19:50;97134.03;;;9.11;98.53
20015;BME280;61787;42.022;23.078;2023-03-01T00:20:53;97135.94;;;9.02;98.94
20015;BME280;61787;42.022;23.078;2023-03-01T00:21:54;97145.06;;;8.92;98.72
20015;BME280;61787;42.022;23.078;2023-03-01T00:22:56;97141.91;;;8.90;99.53
20015;BME280;61787;42.022;23.078;2023-03-01T00:23:58;97139.53;;;8.80;99.89
20015;BME280;61787;42.022;23.078;2023-03-01T00:24:59;97132.13;;;8.77;99.61
20015;BME280;61787;42.022;23.078;2023-03-01T00:26:01;97143.16;;;8.76;99.66
20015;BME280;61787;42.022;23.078;2023-03-01T00:27:03;97141.72;;;8.78;99.22
20015;BME280;61787;42.022;23.078;2023-03-01T00:28:04;97137.63;;;8.72;100.00
20015;BME280;61787;42.022;23.078;2023-03-01T00:29:06;97141.41;;;8.71;100.00
20015;BME280;61787;42.022;23.078;2023-03-01T00:30:08;97135.88;;;8.68;100.00
20015;BME280;61787;42.022;23.078;2023-03-01T00:31:17;97150.97;;;8.64;100.00
20015;BME280;61787;42.022;23.078;2023-03-01T00:32:19;97142.66;;;8.65;100.00
20015;BME280;61787;42.022;23.078;2023-03-01T00:33:21;97144.53;;;8.73;100.00
20015;BME280;61787;42.022;23.078;2023-03-01T00:34:23;97148.78;;;8.66;100.00
20015;BME280;61787;42.022;23.078;2023-03-01T00:35:24;97145.03;;;8.67;100.00
20015;BME280;61787;42.022;23.078;2023-03-01T00:36:28;97145.19;;;8.70;100.00
20015;BME280;61787;42.022;23.078;2023-03-01T00:37:31;97139.69;;;8.75;100.00
20015;BME280;61787;42.022;23.078;2023-03-01T00:38:37;97146.91;;;8.83;100.00
20015;BME280;61787;42.022;23.078;2023-03-01T00:39:39;97142.06;;;8.85;100.00
20015;BME280;61787;42.022;23.078;2023-03-01T00:40:41;97140.94;;;8.95;100.00
20015;BME280;61787;42.022;23.078;2023-03-01T00:41:42;97142.06;;;9.03;100.00
20015;BME280;61787;42.022;23.078;2023-03-01T00:42:44;97149.31;;;9.02;99.28
20015;BME280;61787;42.022;23.078;2023-03-01T00:43:46;97150.25;;;9.06;99.28
20015;BME280;61787;42.022;23.078;2023-03-01T00:44:47;97148.38;;;9.07;99.10
20015;BME280;61787;42.022;23.078;2023-03-01T00:45:49;97145.19;;;9.05;99.21
20015;BME280;61787;42.022;23.078;2023-03-01T00:46:51;97152.94;;;9.06;99.78
20015;BME280;61787;42.022;23.078;2023-03-01T00:47:52;97148.81;;;9.09;99.74
20015;BME280;61787;42.022;23.078;2023-03-01T00:48:54;97155.28;;;9.08;100.00
20015;BME280;61787;42.022;23.078;2023-03-01T00:49:56;97150.25;;;8.97;100.00
20015;BME280;61787;42.022;23.078;2023-03-01T00:51:04;97142.50;;;8.87;100.00
20015;BME280;61787;42.022;23.078;2023-03-01T00:52:06;97150.38;;;8.84;100.00
20015;BME280;61787;42.022;23.078;2023-03-01T00:53:07;97144.38;;;8.78;100.00
20015;BME280;61787;42.022;23.078;2023-03-01T00:54:09;97152.09;;;8.80;100.00
20015;BME280;61787;42.022;23.078;2023-03-01T00:55:11;97148.66;;;8.79;100.00
20015;BME280;61787;42.022;23.078;2023-03-01T00:56:14;97145.34;;;8.82;100.00
20015;BME280;61787;42.022;23.078;2023-03-01T00:57:16;97149.59;;;8.83;100.00
20015;BME280;61787;42.022;23.078;2023-03-01T00:58:17;97145.38;;;8.91;100.00
20015;BME280;61787;42.022;23.078;2023-03-01T00:59:19;97138.59;;;8.93;100.00
20015;BME280;61787;42.022;23.078;2023-03-01T01:00:21;97140.00;;;8.99;100.00
20015;BME280;61787;42.022;23.078;2023-03-01T01:01:26;97142.06;;;9.03;100.00
20015;BME280;61787;42.022;23.078;2023-03-01T01:02:33;97132.28;;;8.98;100.00
20015;BME280;61787;42.022;23.078;2023-03-01T01:03:34;97139.84;;;9.05;100.00
20015;BME280;61787;42.022;23.078;2023-03-01T01:04:36;97139.53;;;9.15;100.00
20015;BME280;61787;42.022;23.078;2023-03-01T01:05:37;97130.25;;;9.21;100.00
20015;BME280;61787;42.022;23.078;2023-03-01T01:06:44;97128.53;;;9.16;100.00
20015;BME280;61787;42.022;23.078;2023-03-01T01:07:47;97132.94;;;9.21;100.00
20015;BME280;61787;42.022;23.078;2023-03-01T01:08:50;97135.59;;;9.21;100.00
20015;BME280;61787;42.022;23.078;2023-03-01T01:09:52;97134.19;;;9.15;99.32
20015;BME280;61787;42.022;23.078;2023-03-01T01:10:53;97132.78;;;9.26;99.89
20015;BME280;61787;42.022;23.078;2023-03-01T01:11:55;97128.34;;;9.30;98.69
20015;BME280;61787;42.022;23.078;2023-03-01T01:12:56;97134.97;;;9.32;98.50
20015;BME280;61787;42.022;23.078;2023-03-01T01:13:59;97127.88;;;9.45;96.98
20015;BME280;61787;42.022;23.078;2023-03-01T01:15:01;97124.41;;;9.45;95.66
20015;BME280;61787;42.022;23.078;2023-03-01T01:16:02;97131.63;;;9.44;95.36
20015;BME280;61787;42.022;23.078;2023-03-01T01:17:04;97117.94;;;9.46;95.11
20015;BME280;61787;42.022;23.078;2023-03-01T01:18:06;97123.44;;;9.49;94.79
20015;BME280;61787;42.022;23.078;2023-03-01T01:19:10;97125.81;;;9.51;96.65
20015;BME280;61787;42.022;23.078;2023-03-01T01:20:12;97122.81;;;9.52;96.19
20015;BME280;61787;42.022;23.078;2023-03-01T01:21:16;97118.09;;;9.58;97.00
20015;BME280;61787;42.022;23.078;2023-03-01T01:22:18;97120.28;;;9.64;96.74
20015;BME280;61787;42.022;23.078;2023-03-01T01:23:19;97124.81;;;9.72;95.36
20015;BME280;61787;42.022;23.078;2023-03-01T01:24:21;97118.50;;;9.77;95.01
20015;BME280;61787;42.022;23.078;2023-03-01T01:25:22;97116.16;;;9.75;95.61
20015;BME280;61787;42.022;23.078;2023-03-01T01:26:31;97116.16;;;9.75;96.61
20015;BME280;61787;42.022;23.078;2023-03-01T01:27:34;97106.38;;;9.79;94.87
20015;BME280;61787;42.022;23.078;2023-03-01T01:28:35;97111.09;;;9.82;95.94
20015;BME280;61787;42.022;23.078;2023-03-01T01:29:37;97110.91;;;9.88;95.58
20015;BME280;61787;42.022;23.078;2023-03-01T01:30:39;97100.81;;;9.93;94.82
20015;BME280;61787;42.022;23.078;2023-03-01T01:31:41;97104.56;;;10.01;93.67
20015;BME280;61787;42.022;23.078;2023-03-01T01:32:43;97104.41;;;9.97;94.05
20015;BME280;61787;42.022;23.078;2023-03-01T01:33:45;97102.22;;;9.91;94.57
20015;BME280;61787;42.022;23.078;2023-03-01T01:34:47;97101.13;;;9.92;95.28
20015;BME280;61787;42.022;23.078;2023-03-01T01:36:07;97097.81;;;9.95;94.54
20015;BME280;61787;42.022;23.078;2023-03-01T01:37:08;97098.19;;;9.84;93.63
20015;BME280;61787;42.022;23.078;2023-03-01T01:38:10;97099.91;;;9.80;94.65
20015;BME280;61787;42.022;23.078;2023-03-01T01:39:12;97097.56;;;9.70;93.48
20015;BME280;61787;42.022;23.078;2023-03-01T01:40:14;97092.25;;;9.62;94.37
20015;BME280;61787;42.022;23.078;2023-03-01T01:41:16;97088.78;;;9.61;94.65
20015;BME280;61787;42.022;23.078;2023-03-01T01:42:18;97087.03;;;9.65;95.10
20015;BME280;61787;42.022;23.078;2023-03-01T01:43:42;97084.66;;;9.72;95.23
20015;BME280;61787;42.022;23.078;2023-03-01T01:45:27;97083.25;;;9.66;93.77
20015;BME280;61787;42.022;23.078;2023-03-01T01:46:31;97085.94;;;9.66;93.50
20015;BME280;61787;42.022;23.078;2023-03-01T01:47:34;97080.13;;;9.64;94.71
20015;BME280;61787;42.022;23.078;2023-03-01T01:48:43;97085.63;;;9.68;93.83
20015;BME280;61787;42.022;23.078;2023-03-01T01:49:49;97085.50;;;9.64;96.03
20015;BME280;61787;42.022;23.078;2023-03-01T01:50:57;97081.06;;;9.60;96.59
20015;BME280;61787;42.022;23.078;2023-03-01T01:52:05;97083.44;;;9.61;96.80
20015;BME280;61787;42.022;23.078;2023-03-01T01:53:15;97084.06;;;9.67;96.23
20015;BME280;61787;42.022;23.078;2023-03-01T01:54:23;97077.78;;;9.63;95.63
20015;BME280;61787;42.022;23.078;2023-03-01T01:55:27;97079.97;;;9.69;95.12
20015;BME280;61787;42.022;23.078;2023-03-01T01:56:29;97080.88;;;9.73;94.85
20015;BME280;61787;42.022;23.078;2023-03-01T01:57:40;97079.66;;;9.62;94.16
20015;BME280;61787;42.022;23.078;2023-03-01T01:58:43;97074.34;;;9.45;94.77
20015;BME280;61787;42.022;23.078;2023-03-01T01:59:49;97076.72;;;9.29;95.15
20015;BME280;61787;42.022;23.078;2023-03-01T02:00:53;97079.25;;;9.26;96.90
20015;BME280;61787;42.022;23.078;2023-03-01T02:01:55;97077.22;;;9.31;96.04
20015;BME280;61787;42.022;23.078;2023-03-01T02:03:26;97075.78;;;9.25;96.78
20015;BME280;61787;42.022;23.078;2023-03-01T02:04:32;97080.06;;;9.18;97.52
20015;BME280;61787;42.022;23.078;2023-03-01T02:05:56;97074.25;;;9.16;97.75
20015;BME280;61787;42.022;23.078;2023-03-01T02:07:14;97073.13;;;9.25;96.91
20015;BME280;61787;42.022;23.078;2023-03-01T02:08:18;97073.59;;;9.27;97.00
20015;BME280;61787;42.022;23.078;2023-03-01T02:09:21;97069.81;;;9.28;96.49
20015;BME280;61787;42.022;23.078;2023-03-01T02:10:25;97065.41;;;9.32;96.70
20015;BME280;61787;42.022;23.078;2023-03-01T02:11:29;97071.22;;;9.34;96.89
20015;BME280;61787;42.022;23.078;2023-03-01T02:12:32;97073.88;;;9.34;97.64
20015;BME280;61787;42.022;23.078;2023-03-01T02:13:35;97068.69;;;9.38;97.76
20015;BME280;61787;42.022;23.078;2023-03-01T02:14:37;97069.63;;;9.42;97.78
20015;BME280;61787;42.022;23.078;2023-03-01T02:15:40;97068.38;;;9.48;98.31
20015;BME280;61787;42.022;23.078;2023-03-01T02:16:42;97072.91;;;9.56;98.05
20015;BME280;61787;42.022;23.078;2023-03-01T02:17:44;97072.09;;;9.64;96.12
20015;BME280;61787;42.022;23.078;2023-03-01T02:18:46;97064.22;;;9.68;96.31
20015;BME280;61787;42.022;23.078;2023-03-01T02:20:04;97069.69;;;9.71;96.30
20015;BME280;61787;42.022;23.078;2023-03-01T02:22:30;97068.81;;;9.59;95.65
20015;BME280;61787;42.022;23.078;2023-03-01T02:23:33;97065.97;;;9.55;96.03
20015;BME280;61787;42.022;23.078;2023-03-01T02:24:44;97066.91;;;9.51;96.11
20015;BME280;61787;42.022;23.078;2023-03-01T02:25:54;97067.72;;;9.51;96.33
20015;BME280;61787;42.022;23.078;2023-03-01T02:27:00;97067.56;;;9.39;95.74
20015;BME280;61787;42.022;23.078;2023-03-01T02:29:06;97067.47;;;9.27;97.94
20015;BME280;61787;42.022;23.078;2023-03-01T02:30:08;97067.00;;;9.16;98.14
20015;BME280;61787;42.022;23.078;2023-03-01T02:31:16;97069.97;;;9.15;99.35
20015;BME280;61787;42.022;23.078;2023-03-01T02:32:38;97072.69;;;9.06;99.15
20015;BME280;61787;42.022;23.078;2023-03-01T02:33:44;97063.88;;;8.97;99.98
20015;BME280;61787;42.022;23.078;2023-03-01T02:34:46;97071.88;;;8.88;100.00
20015;BME280;61787;42.022;23.078;2023-03-01T02:35:48;97071.25;;;8.83;100.00
20015;BME280;61787;42.022;23.078;2023-03-01T02:37:02;97075.22;;;8.77;100.00
20015;BME280;61787;42.022;23.078;2023-03-01T02:38:07;97070.94;;;8.84;100.00
20015;BME280;61787;42.022;23.078;2023-03-01T02:39:14;97067.97;;;8.86;100.00
20015;BME280;61787;42.022;23.078;2023-03-01T02:40:18;97072.03;;;8.83;100.00
20015;BME280;61787;42.022;23.078;2023-03-01T02:41:24;97072.38;;;8.82;100.00
20015;BME280;61787;42.022;23.078;2023-03-01T02:42:32;97068.28;;;8.84;100.00
20015;BME280;61787;42.022;23.078;2023-03-01T02:43:36;97077.56;;;8.87;100.00
20015;BME280;61787;42.022;23.078;2023-03-01T02:44:38;97075.66;;;8.87;100.00
20015;BME280;61787;42.022;23.078;2023-03-01T02:45:47;97073.63;;;8.93;100.00
20015;BME280;61787;42.022;23.078;2023-03-01T02:46:51;97081.66;;;9.02;100.00
20015;BME280;61787;42.022;23.078;2023-03-01T02:47:55;97076.16;;;9.07;100.00
20015;BME280;61787;42.022;23.078;2023-03-01T02:48:58;97075.66;;;9.05;100.00
20015;BME280;61787;42.022;23.078;2023-03-01T02:50:00;97070.31;;;8.96;100.00
20015;BME280;61787;42.022;23.078;2023-03-01T02:51:10;97071.88;;;8.88;100.00
20015;BME280;61787;42.022;23.078;2023-03-01T02:52:44;97074.41;;;8.93;100.00
20015;BME280;61787;42.022;23.078;2023-03-01T02:55:15;97069.84;;;9.11;100.00
20015;BME280;61787;42.022;23.078;2023-03-01T02:56:18;97071.56;;;9.16;99.95
20015;BME280;61787;42.022;23.078;2023-03-01T02:57:20;97074.72;;;9.18;99.22
20015;BME280;61787;42.022;23.078;2023-03-01T02:58:23;97065.91;;;9.09;98.80
20015;BME280;61787;42.022;23.078;2023-03-01T02:59:28;97073.47;;;9.07;99.32
20015;BME280;61787;42.022;23.078;2023-03-01T03:00:42;97076.31;;;9.02;98.49
20015;BME280;61787;42.022;23.078;2023-03-01T03:01:48;97074.75;;;8.92;98.55
20015;BME280;61787;42.022;23.078;2023-03-01T03:02:52;97075.66;;;8.87;98.59
20015;BME280;61787;42.022;23.078;2023-03-01T03:03:53;97069.38;;;8.83;98.36
20015;BME280;61787;42.022;23.078;2023-03-01T03:04:55;97069.69;;;8.73;98.74
20015;BME280;61787;42.022;23.078;2023-03-01T03:05:57;97065.59;;;8.67;98.94
20015;BME280;61787;42.022;23.078;2023-03-01T03:06:58;97072.38;;;8.65;99.73
20015;BME280;61787;42.022;23.078;2023-03-01T03:08:02;97062.63;;;8.60;100.00
20015;BME280;61787;42.022;23.078;2023-03-01T03:09:04;97071.09;;;8.53;99.69
20015;BME280;61787;42.022;23.078;2023-03-01T03:10:09;97071.53;;;8.47;100.00
20015;BME280;61787;42.022;23.078;2023-03-01T03:11:12;97074.53;;;8.45;100.00
20015;BME280;61787;42.022;23.078;2023-03-01T03:12:14;97063.69;;;8.42;100.00
20015;BME280;61787;42.022;23.078;2023-03-01T03:13:15;97071.06;;;8.36;100.00
20015;BME280;61787;42.022;23.078;2023-03-01T03:14:18;97060.31;;;8.28;100.00
20015;BME280;61787;42.022;23.078;2023-03-01T03:15:21;97064.72;;;8.24;100.00
20015;BME280;61787;42.022;23.078;2023-03-01T03:16:23;97068.78;;;8.21;100.00
20015;BME280;61787;42.022;23.078;2023-03-01T03:17:26;97067.19;;;8.11;100.00
20015;BME280;61787;42.022;23.078;2023-03-01T03:18:27;97066.53;;;8.06;100.00
20015;BME280;61787;42.022;23.078;2023-03-01T03:19:29;97071.25;;;8.00;100.00
20015;BME280;61787;42.022;23.078;2023-03-01T03:20:30;97071.56;;;7.99;100.00
20015;BME280;61787;42.022;23.078;2023-03-01T03:21:33;97079.88;;;7.97;100.00
20015;BME280;61787;42.022;23.078;2023-03-01T03:22:35;97077.06;;;7.94;100.00
20015;BME280;61787;42.022;23.078;2023-03-01T03:23:37;97072.97;;;7.96;100.00
20015;BME280;61787;42.022;23.078;2023-03-01T03:24:39;97076.41;;;7.97;100.00
20015;BME280;61787;42.022;23.078;2023-03-01T03:25:40;97077.22;;;7.97;100.00
20015;BME280;61787;42.022;23.078;2023-03-01T03:26:42;97074.09;;;8.04;100.00
20015;BME280;61787;42.022;23.078;2023-03-01T03:27:45;97078.38;;;8.13;100.00
20015;BME280;61787;42.022;23.078;2023-03-01T03:28:47;97073.53;;;8.24;100.00
20015;BME280;61787;42.022;23.078;2023-03-01T03:29:48;97068.53;;;8.31;100.00
20015;BME280;61787;42.022;23.078;2023-03-01T03:30:50;97077.19;;;8.37;100.00
20015;BME280;61787;42.022;23.078;2023-03-01T03:31:52;97076.88;;;8.47;100.00
20015;BME280;61787;42.022;23.078;2023-03-01T03:32:54;97074.25;;;8.55;100.00
20015;BME280;61787;42.022;23.078;2023-03-01T03:33:56;97075.34;;;8.63;100.00
20015;BME280;61787;42.022;23.078;2023-03-01T03:35:00;97073.00;;;8.70;100.00
20015;BME280;61787;42.022;23.078;2023-03-01T03:36:01;97075.97;;;8.77;100.00
20015;BME280;61787;42.022;23.078;2023-03-01T03:37:03;97070.94;;;8.84;100.00
20015;BME280;61787;42.022;23.078;2023-03-01T03:38:08;97081.19;;;8.91;100.00
20015;BME280;61787;42.022;23.078;2023-03-01T03:39:16;97079.28;;;9.00;100.00
20015;BME280;61787;42.022;23.078;2023-03-01T03:40:20;97078.81;;;9.07;99.63
20015;BME280;61787;42.022;23.078;2023-03-01T03:41:22;97069.69;;;9.08;98.21
20015;BME280;61787;42.022;23.078;2023-03-01T03:42:24;97083.22;;;9.11;96.54
20015;BME280;61787;42.022;23.078;2023-03-01T03:43:25;97083.06;;;9.16;96.53
20015;BME280;61787;42.022;23.078;2023-03-01T03:44:27;97080.06;;;9.18;95.86
20015;BME280;61787;42.022;23.078;2023-03-01T03:45:28;97084.28;;;9.19;95.66
20015;BME280;61787;42.022;23.078;2023-03-01T03:46:30;97085.41;;;9.18;96.66
20015;BME280;61787;42.022;23.078;2023-03-01T03:47:32;97080.06;;;9.18;96.21
20015;BME280;61787;42.022;23.078;2023-03-01T03:48:36;97080.69;;;9.15;95.46
20015;BME280;61787;42.022;23.078;2023-03-01T03:49:38;97085.09;;;9.11;96.53
20015;BME280;61787;42.022;23.078;2023-03-01T03:50:40;97080.41;;;9.08;96.21
20015;BME280;61787;42.022;23.078;2023-03-01T03:51:42;97083.22;;;9.03;95.06
20015;BME280;61787;42.022;23.078;2023-03-01T03:52:44;97085.41;;;8.83;93.64
20015;BME280;61787;42.022;23.078;2023-03-01T03:53:45;97088.41;;;8.82;95.01
20015;BME280;61787;42.022;23.078;2023-03-01T03:54:47;97090.63;;;8.80;95.03
20015;BME280;61787;42.022;23.078;2023-03-01T03:55:49;97083.53;;;8.75;94.55
20015;BME280;61787;42.022;23.078;2023-03-01T03:56:50;97087.78;;;8.76;95.01
20015;BME280;61787;42.022;23.078;2023-03-01T03:57:52;97089.81;;;8.79;94.85
20015;BME280;61787;42.022;23.078;2023-03-01T03:58:55;97081.31;;;8.77;95.48
20015;BME280;61787;42.022;23.078;2023-03-01T03:59:56;97085.13;;;8.76;94.38
20015;BME280;61787;42.022;23.078;2023-03-01T04:00:59;97086.50;;;8.65;94.20
20015;BME280;61787;42.022;23.078;2023-03-01T04:02:02;97087.28;;;8.57;95.05
20015;BME280;61787;42.022;23.078;2023-03-01T04:03:03;97084.31;;;8.59;95.33
20015;BME280;61787;42.022;23.078;2023-03-01T04:04:05;97087.59;;;8.64;95.25
20015;BME280;61787;42.022;23.078;2023-03-01T04:05:10;97087.91;;;8.54;94.60
20015;BME280;61787;42.022;23.078;2023-03-01T04:06:15;97090.41;;;8.42;95.66
20015;BME280;61787;42.022;23.078;2023-03-01T04:07:17;97086.63;;;8.43;95.81
20015;BME280;61787;42.022;23.078;2023-03-01T04:08:20;97088.22;;;8.44;96.19
20015;BME280;61787;42.022;23.078;2023-03-01T04:09:22;97099.53;;;8.41;96.35
20015;BME280;61787;42.022;23.078;2023-03-01T04:10:24;97097.16;;;8.39;97.03
20015;BME280;61787;42.022;23.078;2023-03-01T04:11:25;97089.44;;;8.38;95.76
20015;BME280;61787;42.022;23.078;2023-03-01T04:12:27;97084.09;;;8.38;95.86
20015;BME280;61787;42.022;23.078;2023-03-01T04:13:29;97085.84;;;8.34;95.89
20015;BME280;61787;42.022;23.078;2023-03-01T04:14:30;97082.22;;;8.30;95.82
20015;BME280;61787;42.022;23.078;2023-03-01T04:15:33;97083.13;;;8.25;95.76
20015;BME280;61787;42.022;23.078;2023-03-01T04:16:35;97085.44;;;8.18;96.08
20015;BME280;61787;42.022;23.078;2023-03-01T04:17:36;97079.16;;;8.14;96.30
20015;BME280;61787;42.022;23.078;2023-03-01T04:18:38;97085.72;;;8.08;95.74
20015;BME280;61787;42.022;23.078;2023-03-01T04:19:40;97094.69;;;8.03;97.22
20015;BME280;61787;42.022;23.078;2023-03-01T04:20:42;97079.75;;;8.02;97.39
20015;BME280;61787;42.022;23.078;2023-03-01T04:21:44;97088.38;;;7.99;97.96
20015;BME280;61787;42.022;23.078;2023-03-01T04:22:45;97089.34;;;8.03;98.25
20015;BME280;61787;42.022;23.078;2023-03-01T04:23:48;97083.38;;;8.06;98.03
20015;BME280;61787;42.022;23.078;2023-03-01T04:24:49;97091.50;;;8.01;98.01
20015;BME280;61787;42.022;23.078;2023-03-01T04:25:53;97091.50;;;8.01;96.29
20015;BME280;61787;42.022;23.078;2023-03-01T04:26:55;97079.88;;;7.97;97.52
20015;BME280;61787;42.022;23.078;2023-03-01T04:27:57;97089.16;;;8.00;97.21
20015;BME280;61787;42.022;23.078;2023-03-01T04:28:58;97091.19;;;7.94;96.90
20015;BME280;61787;42.022;23.078;2023-03-01T04:30:01;97092.59;;;7.92;97.19
20015;BME280;61787;42.022;23.078;2023-03-01T04:31:08;97092.28;;;7.93;97.64
20015;BME280;61787;42.022;23.078;2023-03-01T04:32:17;97093.41;;;8.01;98.27
20015;BME280;61787;42.022;23.078;2023-03-01T04:33:20;97095.63;;;8.07;98.23
20015;BME280;61787;42.022;23.078;2023-03-01T04:34:22;97099.56;;;8.10;98.59
20015;BME280;61787;42.022;23.078;2023-03-01T04:35:23;97102.53;;;8.08;98.45
20015;BME280;61787;42.022;23.078;2023-03-01T04:36:27;97106.66;;;8.14;97.94
20015;BME280;61787;42.022;23.078;2023-03-01T04:37:29;97094.41;;;8.13;98.05
20015;BME280;61787;42.022;23.078;2023-03-01T04:38:31;97094.25;;;8.19;98.56
20015;BME280;61787;42.022;23.078;2023-03-01T04:39:32;97097.28;;;8.26;98.02
20015;BME280;61787;42.022;23.078;2023-03-01T04:40:34;97100.28;;;8.33;97.55
20015;BME280;61787;42.022;23.078;2023-03-01T04:41:36;97096.06;;;8.40;96.97
20015;BME280;61787;42.022;23.078;2023-03-01T04:42:39;97099.84;;;8.48;96.57
20015;BME280;61787;42.022;23.078;2023-03-01T04:43:40;97093.91;;;8.51;95.73
20015;BME280;61787;42.022;23.078;2023-03-01T04:44:43;97103.81;;;8.59;95.60
20015;BME280;61787;42.022;23.078;2023-03-01T04:45:44;97089.97;;;8.66;94.77
20015;BME280;61787;42.022;23.078;2023-03-01T04:46:48;97096.25;;;8.70;94.66
20015;BME280;61787;42.022;23.078;2023-03-01T04:47:50;97090.13;;;8.69;94.50
20015;BME280;61787;42.022;23.078;2023-03-01T04:48:55;97093.75;;;8.73;94.70
20015;BME280;61787;42.022;23.078;2023-03-01T04:49:56;97087.94;;;8.71;93.67
20015;BME280;61787;42.022;23.078;2023-03-01T04:50:59;97091.41;;;8.72;94.11
20015;BME280;61787;42.022;23.078;2023-03-01T04:52:01;97093.28;;;8.71;94.33
20015;BME280;61787;42.022;23.078;2023-03-01T04:53:05;97092.31;;;8.67;93.72
20015;BME280;61787;42.022;23.078;2023-03-01T04:54:07;97090.91;;;8.70;93.49
20015;BME280;61787;42.022;23.078;2023-03-01T04:55:10;97095.81;;;8.76;93.66
20015;BME280;61787;42.022;23.078;2023-03-01T04:56:13;97086.66;;;8.77;92.95
20015;BME280;61787;42.022;23.078;2023-03-01T04:57:19;97093.28;;;8.71;92.37
20015;BME280;61787;42.022;23.078;2023-03-01T04:58:23;97097.03;;;8.53;92.78
20015;BME280;61787;42.022;23.078;2023-03-01T04:59:25;97092.91;;;8.47;93.46
20015;BME280;61787;42.022;23.078;2023-03-01T05:00:27;97088.34;;;8.39;93.76
20015;BME280;61787;42.022;23.078;2023-03-01T05:01:28;97088.50;;;8.34;94.09
20015;BME280;61787;42.022;23.078;2023-03-01T05:02:30;97089.72;;;8.28;94.51
20015;BME280;61787;42.022;23.078;2023-03-01T05:03:31;97083.47;;;8.32;94.53
20015;BME280;61787;42.022;23.078;2023-03-01T05:04:33;97088.34;;;8.39;94.16
20015;BME280;61787;42.022;23.078;2023-03-01T05:05:37;97092.63;;;8.40;93.89
20015;BME280;61787;42.022;23.078;2023-03-01T05:06:38;97090.38;;;8.33;94.46
20015;BME280;61787;42.022;23.078;2023-03-01T05:07:41;97093.22;;;8.37;94.43
20015;BME280;61787;42.022;23.078;2023-03-01T05:08:43;97096.38;;;8.39;94.00
20015;BME280;61787;42.022;23.078;2023-03-01T05:09:46;97095.13;;;8.45;94.04
20015;BME280;61787;42.022;23.078;2023-03-01T05:10:50;97097.31;;;8.43;93.25
20015;BME280;61787;42.022;23.078;2023-03-01T05:11:52;97096.72;;;8.46;93.51
20015;BME280;61787;42.022;23.078;2023-03-01T05:12:54;97099.25;;;8.51;93.49
20015;BME280;61787;42.022;23.078;2023-03-01T05:13:58;97096.41;;;8.56;92.68
20015;BME280;61787;42.022;23.078;2023-03-01T05:15:00;97098.75;;;8.57;92.45
20015;BME280;61787;42.022;23.078;2023-03-01T05:16:03;97104.28;;;8.61;92.35
20015;BME280;61787;42.022;23.078;2023-03-01T05:17:05;97103.00;;;8.67;92.24
20015;BME280;61787;42.022;23.078;2023-03-01T05:18:07;97110.72;;;8.69;92.13
20015;BME280;61787;42.022;23.078;2023-03-01T05:19:12;97098.63;;;8.71;92.87
20015;BME280;61787;42.022;23.078;2023-03-01T05:20:17;97105.84;;;8.62;93.43
20015;BME280;61787;42.022;23.078;2023-03-01T05:21:18;97109.63;;;8.61;93.11
20015;BME280;61787;42.022;23.078;2023-03-01T05:22:20;97105.69;;;8.67;92.72
20015;BME280;61787;42.022;23.078;2023-03-01T05:23:22;97107.75;;;8.70;91.04
20015;BME280;61787;42.022;23.078;2023-03-01T05:24:24;97103.00;;;8.67;91.24
20015;BME280;61787;42.022;23.078;2023-03-01T05:25:26;97107.25;;;8.68;90.97
20015;BME280;61787;42.022;23.078;2023-03-01T05:26:28;97106.66;;;8.71;91.79
20015;BME280;61787;42.022;23.078;2023-03-01T05:27:30;97114.97;;;8.78;90.56
20015;BME280;61787;42.022;23.078;2023-03-01T05:28:32;97114.97;;;8.78;90.59
20015;BME280;61787;42.022;23.078;2023-03-01T05:29:34;97120.31;;;8.78;89.91
20015;BME280;61787;42.022;23.078;2023-03-01T05:30:36;97111.66;;;8.73;90.36
20015;BME280;61787;42.022;23.078;2023-03-01T05:31:40;97107.91;;;8.65;90.02
20015;BME280;61787;42.022;23.078;2023-03-01T05:32:44;97111.03;;;8.50;91.29
20015;BME280;61787;42.022;23.078;2023-03-01T05:33:46;97110.06;;;8.46;91.79
20015;BME280;61787;42.022;23.078;2023-03-01T05:34:47;97119.97;;;8.54;91.05
20015;BME280;61787;42.022;23.078;2023-03-01T05:35:50;97114.97;;;8.61;91.18
20015;BME280;61787;42.022;23.078;2023-03-01T05:36:53;97117.31;;;8.63;89.97
20015;BME280;61787;42.022;23.078;2023-03-01T05:37:55;97117.81;;;8.65;90.12
20015;BME280;61787;42.022;23.078;2023-03-01T05:38:56;97117.16;;;8.68;90.45
20015;BME280;61787;42.022;23.078;2023-03-01T05:39:58;97116.22;;;8.72;93.56